METAR Data

Data at: 0009 UTC 23 Mar 2019

METAR for:KLAX (Los Angeles Intl, CA, US)
Text:KLAX 222353Z 28015KT 10SM FEW025 SCT150 16/09 A3013 RMK AO2 SLP203 T01610094 10183 20150 56010
Temperature: 16.1°C ( 61°F)
Dewpoint: 9.4°C ( 49°F) [RH = 64%]
Pressure (altimeter):30.13 inches Hg (1020.4 mb) [Sea level pressure: 1020.3 mb]
Winds:from the W (280 degrees) at 17 MPH (15 knots; 7.7 m/s)
Visibility:10 or more sm (16+ km)
Ceiling:at least 12,000 feet AGL
Clouds: few clouds at 2500 feet AGL, scattered clouds at 15000 feet AGL